sensor_id;sensor_type;location;lat;lon;timestamp;P1;durP1;ratioP1;P2;durP2;ratioP2
13208;SDS011;6669;42.678;23.332;2024-01-10T00:00:42;2.30;;;2.10;;
13208;SDS011;6669;42.678;23.332;2024-01-10T00:03:12;2.13;;;1.93;;
13208;SDS011;6669;42.678;23.332;2024-01-10T00:05:41;3.00;;;2.17;;
13208;SDS011;6669;42.678;23.332;2024-01-10T00:08:09;2.50;;;2.10;;
13208;SDS011;6669;42.678;23.332;2024-01-10T00:10:37;2.83;;;1.90;;
13208;SDS011;6669;42.678;23.332;2024-01-10T00:13:06;3.13;;;2.10;;
13208;SDS011;6669;42.678;23.332;2024-01-10T00:15:34;2.20;;;2.00;;
13208;SDS011;6669;42.678;23.332;2024-01-10T00:18:03;3.03;;;2.20;;
13208;SDS011;6669;42.678;23.332;2024-01-10T00:20:34;2.80;;;2.43;;
13208;SDS011;6669;42.678;23.332;2024-01-10T00:23:02;2.20;;;2.00;;
13208;SDS011;6669;42.678;23.332;2024-01-10T00:25:30;3.87;;;2.40;;
13208;SDS011;6669;42.678;23.332;2024-01-10T00:27:58;2.57;;;2.07;;
13208;SDS011;6669;42.678;23.332;2024-01-10T00:30:27;2.23;;;1.80;;
13208;SDS011;6669;42.678;23.332;2024-01-10T00:32:55;2.20;;;2.00;;
13208;SDS011;6669;42.678;23.332;2024-01-10T00:35:23;1.93;;;1.80;;
13208;SDS011;6669;42.678;23.332;2024-01-10T00:37:53;2.73;;;1.90;;
13208;SDS011;6669;42.678;23.332;2024-01-10T00:40:21;2.73;;;2.30;;
13208;SDS011;6669;42.678;23.332;2024-01-10T00:42:49;2.87;;;2.20;;
13208;SDS011;6669;42.678;23.332;2024-01-10T00:45:17;3.40;;;2.27;;
13208;SDS011;6669;42.678;23.332;2024-01-10T00:47:48;2.20;;;2.00;;
13208;SDS011;6669;42.678;23.332;2024-01-10T00:50:16;2.97;;;2.10;;
13208;SDS011;6669;42.678;23.332;2024-01-10T00:52:45;2.23;;;2.03;;
13208;SDS011;6669;42.678;23.332;2024-01-10T00:55:15;3.93;;;2.00;;
13208;SDS011;6669;42.678;23.332;2024-01-10T00:57:43;2.17;;;1.90;;
13208;SDS011;6669;42.678;23.332;2024-01-10T01:00:12;4.17;;;3.00;;
13208;SDS011;6669;42.678;23.332;2024-01-10T01:02:41;3.07;;;2.20;;
13208;SDS011;6669;42.678;23.332;2024-01-10T01:05:09;2.67;;;1.90;;
13208;SDS011;6669;42.678;23.332;2024-01-10T01:07:37;2.83;;;2.30;;
13208;SDS011;6669;42.678;23.332;2024-01-10T01:10:06;2.30;;;1.93;;
13208;SDS011;6669;42.678;23.332;2024-01-10T01:12:37;2.20;;;1.80;;
13208;SDS011;6669;42.678;23.332;2024-01-10T01:15:06;3.60;;;2.13;;
13208;SDS011;6669;42.678;23.332;2024-01-10T01:17:34;2.80;;;2.17;;
13208;SDS011;6669;42.678;23.332;2024-01-10T01:20:03;2.20;;;2.00;;
13208;SDS011;6669;42.678;23.332;2024-01-10T01:22:32;2.80;;;2.10;;
13208;SDS011;6669;42.678;23.332;2024-01-10T01:25:00;2.47;;;2.20;;
13208;SDS011;6669;42.678;23.332;2024-01-10T01:27:29;2.17;;;1.97;;
13208;SDS011;6669;42.678;23.332;2024-01-10T01:29:58;2.37;;;2.17;;
13208;SDS011;6669;42.678;23.332;2024-01-10T01:32:26;2.47;;;2.23;;
13208;SDS011;6669;42.678;23.332;2024-01-10T01:34:55;2.30;;;1.90;;
13208;SDS011;6669;42.678;23.332;2024-01-10T01:37:23;2.30;;;2.10;;
13208;SDS011;6669;42.678;23.332;2024-01-10T01:39:51;2.80;;;2.23;;
13208;SDS011;6669;42.678;23.332;2024-01-10T01:42:20;2.40;;;2.10;;
13208;SDS011;6669;42.678;23.332;2024-01-10T01:44:48;2.40;;;2.20;;
13208;SDS011;6669;42.678;23.332;2024-01-10T01:47:18;2.30;;;2.10;;
13208;SDS011;6669;42.678;23.332;2024-01-10T01:49:45;2.37;;;2.17;;
13208;SDS011;6669;42.678;23.332;2024-01-10T01:52:15;2.37;;;2.17;;
13208;SDS011;6669;42.678;23.332;2024-01-10T01:54:43;2.60;;;2.40;;
13208;SDS011;6669;42.678;23.332;2024-01-10T01:57:11;2.57;;;2.30;;
13208;SDS011;6669;42.678;23.332;2024-01-10T01:59:40;2.43;;;2.23;;
13208;SDS011;6669;42.678;23.332;2024-01-10T02:02:08;2.50;;;2.30;;
13208;SDS011;6669;42.678;23.332;2024-01-10T02:04:40;2.90;;;2.40;;
13208;SDS011;6669;42.678;23.332;2024-01-10T02:07:09;2.90;;;2.50;;
13208;SDS011;6669;42.678;23.332;2024-01-10T02:09:38;3.03;;;2.80;;
13208;SDS011;6669;42.678;23.332;2024-01-10T02:12:07;3.57;;;3.00;;
13208;SDS011;6669;42.678;23.332;2024-01-10T02:14:35;3.20;;;2.60;;
13208;SDS011;6669;42.678;23.332;2024-01-10T02:17:04;3.27;;;2.97;;
13208;SDS011;6669;42.678;23.332;2024-01-10T02:19:32;3.30;;;3.00;;
13208;SDS011;6669;42.678;23.332;2024-01-10T02:22:02;3.30;;;3.00;;
13208;SDS011;6669;42.678;23.332;2024-01-10T02:24:31;3.80;;;2.97;;
13208;SDS011;6669;42.678;23.332;2024-01-10T02:27:00;3.13;;;2.83;;
13208;SDS011;6669;42.678;23.332;2024-01-10T02:29:29;3.27;;;2.97;;
13208;SDS011;6669;42.678;23.332;2024-01-10T02:31:58;2.87;;;2.60;;
13208;SDS011;6669;42.678;23.332;2024-01-10T02:34:26;3.67;;;2.87;;
13208;SDS011;6669;42.678;23.332;2024-01-10T02:36:54;3.43;;;2.73;;
13208;SDS011;6669;42.678;23.332;2024-01-10T02:39:23;3.20;;;2.90;;
13208;SDS011;6669;42.678;23.332;2024-01-10T02:41:52;3.70;;;2.90;;
13208;SDS011;6669;42.678;23.332;2024-01-10T02:44:21;3.30;;;3.00;;
13208;SDS011;6669;42.678;23.332;2024-01-10T02:46:50;3.17;;;2.87;;
13208;SDS011;6669;42.678;23.332;2024-01-10T02:49:18;2.93;;;2.70;;
13208;SDS011;6669;42.678;23.332;2024-01-10T02:51:46;3.00;;;2.70;;
13208;SDS011;6669;42.678;23.332;2024-01-10T02:54:15;2.87;;;2.67;;
13208;SDS011;6669;42.678;23.332;2024-01-10T02:56:43;2.40;;;2.20;;
13208;SDS011;6669;42.678;23.332;2024-01-10T02:59:11;2.60;;;2.40;;
13208;SDS011;6669;42.678;23.332;2024-01-10T03:01:41;3.40;;;2.30;;
13208;SDS011;6669;42.678;23.332;2024-01-10T03:04:11;2.20;;;2.00;;
13208;SDS011;6669;42.678;23.332;2024-01-10T03:06:40;2.70;;;2.10;;
13208;SDS011;6669;42.678;23.332;2024-01-10T03:09:09;2.40;;;2.20;;
13208;SDS011;6669;42.678;23.332;2024-01-10T03:11:37;2.80;;;2.03;;
13208;SDS011;6669;42.678;23.332;2024-01-10T03:14:07;2.13;;;1.93;;
13208;SDS011;6669;42.678;23.332;2024-01-10T03:16:36;2.30;;;2.10;;
13208;SDS011;6669;42.678;23.332;2024-01-10T03:19:06;1.80;;;1.70;;
13208;SDS011;6669;42.678;23.332;2024-01-10T03:21:35;2.13;;;1.93;;
13208;SDS011;6669;42.678;23.332;2024-01-10T03:24:02;2.60;;;2.00;;
13208;SDS011;6669;42.678;23.332;2024-01-10T03:26:30;2.40;;;1.97;;
13208;SDS011;6669;42.678;23.332;2024-01-10T03:28:59;2.60;;;2.10;;
13208;SDS011;6669;42.678;23.332;2024-01-10T03:31:27;2.87;;;2.00;;
13208;SDS011;6669;42.678;23.332;2024-01-10T03:33:56;2.40;;;2.20;;
13208;SDS011;6669;42.678;23.332;2024-01-10T03:36:27;2.40;;;2.20;;
13208;SDS011;6669;42.678;23.332;2024-01-10T03:38:55;3.33;;;2.40;;
13208;SDS011;6669;42.678;23.332;2024-01-10T03:41:23;2.40;;;2.03;;
13208;SDS011;6669;42.678;23.332;2024-01-10T03:43:52;2.33;;;2.00;;
13208;SDS011;6669;42.678;23.332;2024-01-10T03:46:21;2.93;;;2.10;;
13208;SDS011;6669;42.678;23.332;2024-01-10T03:48:49;2.40;;;2.20;;
13208;SDS011;6669;42.678;23.332;2024-01-10T03:51:19;1.90;;;1.70;;
13208;SDS011;6669;42.678;23.332;2024-01-10T03:53:49;2.40;;;2.20;;
13208;SDS011;6669;42.678;23.332;2024-01-10T03:56:17;2.50;;;2.30;;
13208;SDS011;6669;42.678;23.332;2024-01-10T03:58:46;2.23;;;2.00;;
13208;SDS011;6669;42.678;23.332;2024-01-10T04:01:15;2.67;;;2.47;;
13208;SDS011;6669;42.678;23.332;2024-01-10T04:03:43;2.60;;;2.30;;
13208;SDS011;6669;42.678;23.332;2024-01-10T04:06:12;2.87;;;2.30;;
13208;SDS011;6669;42.678;23.332;2024-01-10T04:08:40;3.00;;;2.20;;
13208;SDS011;6669;42.678;23.332;2024-01-10T04:11:10;2.47;;;2.27;;
13208;SDS011;6669;42.678;23.332;2024-01-10T04:13:38;3.23;;;2.60;;
13208;SDS011;6669;42.678;23.332;2024-01-10T04:16:07;2.90;;;2.70;;
13208;SDS011;6669;42.678;23.332;2024-01-10T04:18:35;2.63;;;2.43;;
13208;SDS011;6669;42.678;23.332;2024-01-10T04:21:04;2.97;;;2.50;;
13208;SDS011;6669;42.678;23.332;2024-01-10T04:23:32;4.43;;;2.73;;
13208;SDS011;6669;42.678;23.332;2024-01-10T04:26:01;3.97;;;3.27;;
13208;SDS011;6669;42.678;23.332;2024-01-10T04:28:31;4.57;;;3.57;;
13208;SDS011;6669;42.678;23.332;2024-01-10T04:31:00;2.90;;;2.60;;
13208;SDS011;6669;42.678;23.332;2024-01-10T04:33:28;3.00;;;2.60;;
13208;SDS011;6669;42.678;23.332;2024-01-10T04:35:56;3.33;;;3.00;;
13208;SDS011;6669;42.678;23.332;2024-01-10T04:38:24;3.00;;;2.67;;
13208;SDS011;6669;42.678;23.332;2024-01-10T04:40:53;4.03;;;3.00;;
13208;SDS011;6669;42.678;23.332;2024-01-10T04:43:22;2.83;;;2.43;;
13208;SDS011;6669;42.678;23.332;2024-01-10T04:45:51;3.00;;;2.70;;
13208;SDS011;6669;42.678;23.332;2024-01-10T04:48:19;4.27;;;3.03;;
13208;SDS011;6669;42.678;23.332;2024-01-10T04:50:48;2.50;;;2.30;;
13208;SDS011;6669;42.678;23.332;2024-01-10T04:53:16;3.90;;;2.47;;
13208;SDS011;6669;42.678;23.332;2024-01-10T04:55:45;3.63;;;2.60;;
13208;SDS011;6669;42.678;23.332;2024-01-10T04:58:17;2.83;;;2.50;;
13208;SDS011;6669;42.678;23.332;2024-01-10T05:00:45;5.20;;;2.60;;
13208;SDS011;6669;42.678;23.332;2024-01-10T05:03:15;2.53;;;2.33;;
13208;SDS011;6669;42.678;23.332;2024-01-10T05:05:43;4.07;;;2.40;;
13208;SDS011;6669;42.678;23.332;2024-01-10T05:08:12;2.70;;;2.50;;
13208;SDS011;6669;42.678;23.332;2024-01-10T05:10:40;4.20;;;2.57;;
13208;SDS011;6669;42.678;23.332;2024-01-10T05:13:08;3.03;;;2.60;;
13208;SDS011;6669;42.678;23.332;2024-01-10T05:15:36;5.17;;;2.67;;
13208;SDS011;6669;42.678;23.332;2024-01-10T05:18:05;3.80;;;3.00;;
13208;SDS011;6669;42.678;23.332;2024-01-10T05:20:35;2.70;;;2.50;;
13208;SDS011;6669;42.678;23.332;2024-01-10T05:23:03;3.03;;;2.73;;
13208;SDS011;6669;42.678;23.332;2024-01-10T05:25:31;4.60;;;3.00;;
13208;SDS011;6669;42.678;23.332;2024-01-10T05:28:00;3.07;;;2.47;;
13208;SDS011;6669;42.678;23.332;2024-01-10T05:30:29;4.33;;;2.83;;
13208;SDS011;6669;42.678;23.332;2024-01-10T05:32:58;3.93;;;2.77;;
13208;SDS011;6669;42.678;23.332;2024-01-10T05:35:27;3.90;;;2.80;;
13208;SDS011;6669;42.678;23.332;2024-01-10T05:37:56;5.33;;;2.70;;
13208;SDS011;6669;42.678;23.332;2024-01-10T05:40:25;4.90;;;3.33;;
13208;SDS011;6669;42.678;23.332;2024-01-10T05:42:56;4.53;;;3.90;;
13208;SDS011;6669;42.678;23.332;2024-01-10T05:45:25;3.60;;;3.30;;
13208;SDS011;6669;42.678;23.332;2024-01-10T05:47:54;3.23;;;2.80;;
13208;SDS011;6669;42.678;23.332;2024-01-10T05:50:23;3.53;;;2.83;;
13208;SDS011;6669;42.678;23.332;2024-01-10T05:52:51;4.80;;;3.77;;
13208;SDS011;6669;42.678;23.332;2024-01-10T05:55:21;3.20;;;2.77;;
13208;SDS011;6669;42.678;23.332;2024-01-10T05:57:50;3.20;;;2.90;;
13208;SDS011;6669;42.678;23.332;2024-01-10T06:00:18;4.13;;;2.67;;
13208;SDS011;6669;42.678;23.332;2024-01-10T06:02:47;5.37;;;3.90;;
13208;SDS011;6669;42.678;23.332;2024-01-10T06:05:16;5.17;;;3.20;;
13208;SDS011;6669;42.678;23.332;2024-01-10T06:07:44;3.30;;;2.63;;
13208;SDS011;6669;42.678;23.332;2024-01-10T06:10:12;4.43;;;3.03;;
13208;SDS011;6669;42.678;23.332;2024-01-10T06:12:42;3.47;;;2.47;;
13208;SDS011;6669;42.678;23.332;2024-01-10T06:15:10;3.77;;;2.53;;
13208;SDS011;6669;42.678;23.332;2024-01-10T06:17:39;5.40;;;3.70;;
13208;SDS011;6669;42.678;23.332;2024-01-10T06:20:08;4.03;;;2.90;;
13208;SDS011;6669;42.678;23.332;2024-01-10T06:22:37;3.50;;;2.87;;
13208;SDS011;6669;42.678;23.332;2024-01-10T06:25:06;5.73;;;4.90;;
13208;SDS011;6669;42.678;23.332;2024-01-10T06:27:35;4.93;;;3.60;;
13208;SDS011;6669;42.678;23.332;2024-01-10T06:30:05;3.80;;;3.40;;
13208;SDS011;6669;42.678;23.332;2024-01-10T06:32:35;5.90;;;2.73;;
13208;SDS011;6669;42.678;23.332;2024-01-10T06:35:04;4.27;;;2.70;;
13208;SDS011;6669;42.678;23.332;2024-01-10T06:37:35;3.30;;;2.43;;
13208;SDS011;6669;42.678;23.332;2024-01-10T06:40:05;4.10;;;2.50;;
13208;SDS011;6669;42.678;23.332;2024-01-10T06:42:35;2.93;;;2.20;;
13208;SDS011;6669;42.678;23.332;2024-01-10T06:45:06;2.87;;;2.23;;
13208;SDS011;6669;42.678;23.332;2024-01-10T06:47:35;3.70;;;2.80;;
13208;SDS011;6669;42.678;23.332;2024-01-10T06:50:04;3.03;;;2.57;;
13208;SDS011;6669;42.678;23.332;2024-01-10T06:52:35;4.57;;;3.40;;
13208;SDS011;6669;42.678;23.332;2024-01-10T06:55:04;5.97;;;2.97;;
13208;SDS011;6669;42.678;23.332;2024-01-10T06:57:33;3.63;;;2.73;;
13208;SDS011;6669;42.678;23.332;2024-01-10T07:00:01;7.17;;;4.60;;
13208;SDS011;6669;42.678;23.332;2024-01-10T07:02:39;6.97;;;5.37;;
13208;SDS011;6669;42.678;23.332;2024-01-10T07:05:07;3.53;;;2.60;;
13208;SDS011;6669;42.678;23.332;2024-01-10T07:07:36;3.70;;;2.83;;
13208;SDS011;6669;42.678;23.332;2024-01-10T07:10:05;4.83;;;3.83;;
13208;SDS011;6669;42.678;23.332;2024-01-10T07:12:33;3.70;;;3.07;;
13208;SDS011;6669;42.678;23.332;2024-01-10T07:15:02;4.97;;;2.90;;
13208;SDS011;6669;42.678;23.332;2024-01-10T07:17:31;4.23;;;3.10;;
13208;SDS011;6669;42.678;23.332;2024-01-10T07:20:01;4.13;;;3.00;;
13208;SDS011;6669;42.678;23.332;2024-01-10T07:22:31;5.37;;;3.00;;
13208;SDS011;6669;42.678;23.332;2024-01-10T07:25:01;4.47;;;2.87;;
13208;SDS011;6669;42.678;23.332;2024-01-10T07:27:31;4.87;;;3.80;;
13208;SDS011;6669;42.678;23.332;2024-01-10T07:30:00;4.73;;;3.40;;
13208;SDS011;6669;42.678;23.332;2024-01-10T07:32:28;4.70;;;3.27;;
13208;SDS011;6669;42.678;23.332;2024-01-10T07:34:57;20.53;;;13.97;;
13208;SDS011;6669;42.678;23.332;2024-01-10T07:37:27;3.00;;;2.70;;
13208;SDS011;6669;42.678;23.332;2024-01-10T07:39:55;14.50;;;8.57;;
13208;SDS011;6669;42.678;23.332;2024-01-10T07:42:24;13.73;;;6.90;;
13208;SDS011;6669;42.678;23.332;2024-01-10T07:44:52;16.13;;;10.07;;
13208;SDS011;6669;42.678;23.332;2024-01-10T07:47:20;4.73;;;3.60;;
13208;SDS011;6669;42.678;23.332;2024-01-10T07:49:49;8.73;;;5.13;;
13208;SDS011;6669;42.678;23.332;2024-01-10T07:52:17;6.67;;;4.73;;
13208;SDS011;6669;42.678;23.332;2024-01-10T07:54:50;4.00;;;3.20;;
13208;SDS011;6669;42.678;23.332;2024-01-10T07:57:18;3.53;;;2.40;;
13208;SDS011;6669;42.678;23.332;2024-01-10T07:59:47;11.33;;;8.50;;
13208;SDS011;6669;42.678;23.332;2024-01-10T08:02:18;3.63;;;2.70;;
13208;SDS011;6669;42.678;23.332;2024-01-10T08:04:46;3.23;;;2.50;;
13208;SDS011;6669;42.678;23.332;2024-01-10T08:07:14;7.17;;;4.27;;
13208;SDS011;6669;42.678;23.332;2024-01-10T08:09:43;5.07;;;3.23;;
13208;SDS011;6669;42.678;23.332;2024-01-10T08:12:12;4.40;;;2.70;;
13208;SDS011;6669;42.678;23.332;2024-01-10T08:14:43;4.20;;;3.10;;
13208;SDS011;6669;42.678;23.332;2024-01-10T08:17:12;6.23;;;4.93;;
13208;SDS011;6669;42.678;23.332;2024-01-10T08:19:41;5.23;;;3.00;;
13208;SDS011;6669;42.678;23.332;2024-01-10T08:22:10;5.03;;;2.70;;
13208;SDS011;6669;42.678;23.332;2024-01-10T08:24:39;3.90;;;3.00;;
13208;SDS011;6669;42.678;23.332;2024-01-10T08:27:07;3.10;;;2.80;;
13208;SDS011;6669;42.678;23.332;2024-01-10T08:29:36;2.43;;;2.20;;
13208;SDS011;6669;42.678;23.332;2024-01-10T08:32:05;3.10;;;2.00;;
13208;SDS011;6669;42.678;23.332;2024-01-10T08:34:34;2.70;;;2.20;;
13208;SDS011;6669;42.678;23.332;2024-01-10T08:37:03;3.20;;;2.53;;
13208;SDS011;6669;42.678;23.332;2024-01-10T08:39:31;4.63;;;2.30;;
13208;SDS011;6669;42.678;23.332;2024-01-10T08:42:00;2.63;;;2.00;;
13208;SDS011;6669;42.678;23.332;2024-01-10T08:44:28;3.43;;;2.00;;
13208;SDS011;6669;42.678;23.332;2024-01-10T08:46:58;4.97;;;2.40;;
13208;SDS011;6669;42.678;23.332;2024-01-10T08:49:38;13.40;;;8.43;;
13208;SDS011;6669;42.678;23.332;2024-01-10T08:52:06;3.53;;;2.80;;
13208;SDS011;6669;42.678;23.332;2024-01-10T08:54:35;7.83;;;3.97;;
13208;SDS011;6669;42.678;23.332;2024-01-10T08:57:04;8.43;;;4.60;;
13208;SDS011;6669;42.678;23.332;2024-01-10T08:59:32;5.77;;;3.47;;
13208;SDS011;6669;42.678;23.332;2024-01-10T09:02:02;22.20;;;9.40;;
13208;SDS011;6669;42.678;23.332;2024-01-10T09:04:31;9.97;;;5.87;;
13208;SDS011;6669;42.678;23.332;2024-01-10T09:07:03;4.70;;;3.30;;
13208;SDS011;6669;42.678;23.332;2024-01-10T09:09:31;25.23;;;14.07;;
13208;SDS011;6669;42.678;23.332;2024-01-10T09:12:00;2.97;;;2.67;;
13208;SDS011;6669;42.678;23.332;2024-01-10T09:14:29;5.13;;;4.10;;
13208;SDS011;6669;42.678;23.332;2024-01-10T09:16:58;3.77;;;3.10;;
13208;SDS011;6669;42.678;23.332;2024-01-10T09:19:30;3.10;;;2.40;;
13208;SDS011;6669;42.678;23.332;2024-01-10T09:21:58;3.43;;;2.47;;
13208;SDS011;6669;42.678;23.332;2024-01-10T09:24:27;4.10;;;2.53;;
13208;SDS011;6669;42.678;23.332;2024-01-10T09:26:56;3.37;;;2.70;;
13208;SDS011;6669;42.678;23.332;2024-01-10T09:29:24;6.50;;;3.80;;
13208;SDS011;6669;42.678;23.332;2024-01-10T09:31:53;2.30;;;2.10;;
13208;SDS011;6669;42.678;23.332;2024-01-10T09:34:23;3.13;;;2.43;;
13208;SDS011;6669;42.678;23.332;2024-01-10T09:36:53;4.23;;;2.43;;
13208;SDS011;6669;42.678;23.332;2024-01-10T09:39:21;4.27;;;2.57;;
13208;SDS011;6669;42.678;23.332;2024-01-10T09:41:50;3.30;;;2.70;;
13208;SDS011;6669;42.678;23.332;2024-01-10T09:44:18;3.20;;;2.77;;
13208;SDS011;6669;42.678;23.332;2024-01-10T09:46:49;4.13;;;2.50;;
13208;SDS011;6669;42.678;23.332;2024-01-10T09:49:19;3.43;;;2.80;;
13208;SDS011;6669;42.678;23.332;2024-01-10T09:51:49;3.93;;;2.67;;
13208;SDS011;6669;42.678;23.332;2024-01-10T09:54:22;4.60;;;2.83;;
13208;SDS011;6669;42.678;23.332;2024-01-10T09:56:53;4.00;;;2.57;;
13208;SDS011;6669;42.678;23.332;2024-01-10T09:59:22;3.63;;;2.77;;
13208;SDS011;6669;42.678;23.332;2024-01-10T10:01:51;3.17;;;2.53;;
13208;SDS011;6669;42.678;23.332;2024-01-10T10:04:20;8.50;;;2.90;;
13208;SDS011;6669;42.678;23.332;2024-01-10T10:06:57;4.00;;;2.97;;
13208;SDS011;6669;42.678;23.332;2024-01-10T10:09:30;3.27;;;2.30;;
13208;SDS011;6669;42.678;23.332;2024-01-10T10:11:59;3.43;;;2.73;;
13208;SDS011;6669;42.678;23.332;2024-01-10T10:14:28;4.57;;;2.40;;
13208;SDS011;6669;42.678;23.332;2024-01-10T10:17:00;3.03;;;2.47;;
13208;SDS011;6669;42.678;23.332;2024-01-10T10:19:42;3.10;;;2.67;;
13208;SDS011;6669;42.678;23.332;2024-01-10T10:22:12;3.23;;;2.83;;
13208;SDS011;6669;42.678;23.332;2024-01-10T10:24:41;3.67;;;3.10;;
13208;SDS011;6669;42.678;23.332;2024-01-10T10:27:16;4.53;;;3.20;;
13208;SDS011;6669;42.678;23.332;2024-01-10T10:29:44;3.87;;;2.67;;
13208;SDS011;6669;42.678;23.332;2024-01-10T10:32:14;3.60;;;2.83;;
13208;SDS011;6669;42.678;23.332;2024-01-10T10:34:45;3.57;;;2.83;;
13208;SDS011;6669;42.678;23.332;2024-01-10T10:37:13;3.87;;;3.40;;
13208;SDS011;6669;42.678;23.332;2024-01-10T10:39:43;5.27;;;3.20;;
13208;SDS011;6669;42.678;23.332;2024-01-10T10:42:11;4.40;;;2.97;;
13208;SDS011;6669;42.678;23.332;2024-01-10T10:44:41;4.73;;;3.10;;
13208;SDS011;6669;42.678;23.332;2024-01-10T10:47:12;3.80;;;3.40;;
13208;SDS011;6669;42.678;23.332;2024-01-10T10:49:45;3.90;;;3.30;;
13208;SDS011;6669;42.678;23.332;2024-01-10T10:52:18;4.50;;;3.27;;
13208;SDS011;6669;42.678;23.332;2024-01-10T10:54:48;3.50;;;3.00;;
13208;SDS011;6669;42.678;23.332;2024-01-10T10:57:21;3.70;;;3.03;;
13208;SDS011;6669;42.678;23.332;2024-01-10T10:59:52;3.60;;;3.00;;
13208;SDS011;6669;42.678;23.332;2024-01-10T11:02:21;5.83;;;3.60;;
13208;SDS011;6669;42.678;23.332;2024-01-10T11:04:56;4.50;;;3.80;;
13208;SDS011;6669;42.678;23.332;2024-01-10T11:09:56;5.67;;;4.43;;
13208;SDS011;6669;42.678;23.332;2024-01-10T11:12:31;5.50;;;4.40;;
13208;SDS011;6669;42.678;23.332;2024-01-10T11:15:19;7.07;;;4.67;;
13208;SDS011;6669;42.678;23.332;2024-01-10T11:18:02;8.17;;;5.27;;
13208;SDS011;6669;42.678;23.332;2024-01-10T11:20:53;7.50;;;5.23;;
13208;SDS011;6669;42.678;23.332;2024-01-10T11:23:38;8.17;;;5.50;;
13208;SDS011;6669;42.678;23.332;2024-01-10T11:26:11;12.63;;;7.53;;
13208;SDS011;6669;42.678;23.332;2024-01-10T11:28:42;26.83;;;20.13;;
13208;SDS011;6669;42.678;23.332;2024-01-10T11:31:10;11.70;;;6.90;;
13208;SDS011;6669;42.678;23.332;2024-01-10T11:33:42;11.53;;;6.73;;
13208;SDS011;6669;42.678;23.332;2024-01-10T11:36:12;10.77;;;7.23;;
13208;SDS011;6669;42.678;23.332;2024-01-10T11:38:42;14.57;;;7.17;;
13208;SDS011;6669;42.678;23.332;2024-01-10T11:41:19;9.40;;;7.00;;
13208;SDS011;6669;42.678;23.332;2024-01-10T11:47:06;13.47;;;6.87;;
13208;SDS011;6669;42.678;23.332;2024-01-10T11:49:35;8.40;;;6.13;;
13208;SDS011;6669;42.678;23.332;2024-01-10T11:52:08;10.30;;;6.77;;
13208;SDS011;6669;42.678;23.332;2024-01-10T11:54:40;9.27;;;6.57;;
13208;SDS011;6669;42.678;23.332;2024-01-10T11:57:18;9.40;;;7.00;;
13208;SDS011;6669;42.678;23.332;2024-01-10T11:59:50;8.30;;;6.40;;
13208;SDS011;6669;42.678;23.332;2024-01-10T12:02:19;9.23;;;6.93;;
13208;SDS011;6669;42.678;23.332;2024-01-10T12:04:48;9.23;;;6.57;;
13208;SDS011;6669;42.678;23.332;2024-01-10T12:07:17;8.67;;;6.00;;
13208;SDS011;6669;42.678;23.332;2024-01-10T12:09:47;8.83;;;6.50;;
13208;SDS011;6669;42.678;23.332;2024-01-10T12:12:17;8.03;;;6.20;;
13208;SDS011;6669;42.678;23.332;2024-01-10T12:14:46;12.93;;;7.03;;
13208;SDS011;6669;42.678;23.332;2024-01-10T12:17:14;10.80;;;7.03;;
13208;SDS011;6669;42.678;23.332;2024-01-10T12:19:43;9.87;;;6.83;;
13208;SDS011;6669;42.678;23.332;2024-01-10T12:22:15;10.50;;;6.93;;
13208;SDS011;6669;42.678;23.332;2024-01-10T12:24:44;9.63;;;6.07;;
13208;SDS011;6669;42.678;23.332;2024-01-10T12:27:18;9.27;;;6.73;;
13208;SDS011;6669;42.678;23.332;2024-01-10T12:29:50;9.53;;;6.83;;
13208;SDS011;6669;42.678;23.332;2024-01-10T12:32:20;9.13;;;6.20;;
13208;SDS011;6669;42.678;23.332;2024-01-10T12:34:54;10.73;;;6.60;;
13208;SDS011;6669;42.678;23.332;2024-01-10T12:37:25;11.13;;;6.93;;
13208;SDS011;6669;42.678;23.332;2024-01-10T12:39:54;9.20;;;7.03;;
13208;SDS011;6669;42.678;23.332;2024-01-10T12:42:24;10.70;;;7.27;;
13208;SDS011;6669;42.678;23.332;2024-01-10T12:44:52;12.03;;;7.03;;
13208;SDS011;6669;42.678;23.332;2024-01-10T12:47:21;10.67;;;6.93;;
13208;SDS011;6669;42.678;23.332;2024-01-10T12:49:50;8.13;;;6.63;;
13208;SDS011;6669;42.678;23.332;2024-01-10T12:52:20;9.57;;;6.60;;
13208;SDS011;6669;42.678;23.332;2024-01-10T12:54:51;8.57;;;7.10;;
13208;SDS011;6669;42.678;23.332;2024-01-10T12:57:21;7.70;;;6.50;;
13208;SDS011;6669;42.678;23.332;2024-01-10T12:59:51;11.00;;;6.80;;
13208;SDS011;6669;42.678;23.332;2024-01-10T13:02:19;9.53;;;7.07;;
13208;SDS011;6669;42.678;23.332;2024-01-10T13:04:48;12.67;;;7.00;;
13208;SDS011;6669;42.678;23.332;2024-01-10T13:07:18;9.93;;;6.57;;
13208;SDS011;6669;42.678;23.332;2024-01-10T13:09:49;9.23;;;6.83;;
13208;SDS011;6669;42.678;23.332;2024-01-10T13:12:19;8.83;;;6.27;;
13208;SDS011;6669;42.678;23.332;2024-01-10T13:14:49;8.37;;;6.10;;
13208;SDS011;6669;42.678;23.332;2024-01-10T13:17:18;10.33;;;6.57;;
13208;SDS011;6669;42.678;23.332;2024-01-10T13:19:47;11.47;;;7.30;;
13208;SDS011;6669;42.678;23.332;2024-01-10T13:22:16;9.50;;;6.30;;
13208;SDS011;6669;42.678;23.332;2024-01-10T13:24:46;11.47;;;6.77;;
13208;SDS011;6669;42.678;23.332;2024-01-10T13:27:17;9.00;;;6.63;;
13208;SDS011;6669;42.678;23.332;2024-01-10T13:29:49;12.10;;;6.33;;
13208;SDS011;6669;42.678;23.332;2024-01-10T13:32:17;8.70;;;6.50;;
13208;SDS011;6669;42.678;23.332;2024-01-10T13:34:46;7.53;;;6.40;;
13208;SDS011;6669;42.678;23.332;2024-01-10T13:37:14;7.30;;;6.10;;
13208;SDS011;6669;42.678;23.332;2024-01-10T13:39:42;8.87;;;6.83;;
13208;SDS011;6669;42.678;23.332;2024-01-10T13:42:11;9.60;;;6.77;;
13208;SDS011;6669;42.678;23.332;2024-01-10T13:44:39;9.00;;;6.63;;
13208;SDS011;6669;42.678;23.332;2024-01-10T13:47:09;7.47;;;6.17;;
13208;SDS011;6669;42.678;23.332;2024-01-10T13:49:37;7.77;;;6.17;;
13208;SDS011;6669;42.678;23.332;2024-01-10T13:52:05;9.47;;;7.37;;
13208;SDS011;6669;42.678;23.332;2024-01-10T13:54:33;20.70;;;12.90;;
13208;SDS011;6669;42.678;23.332;2024-01-10T13:57:03;10.60;;;7.00;;
13208;SDS011;6669;42.678;23.332;2024-01-10T13:59:31;9.63;;;7.03;;
13208;SDS011;6669;42.678;23.332;2024-01-10T14:02:00;10.10;;;7.07;;
13208;SDS011;6669;42.678;23.332;2024-01-10T14:04:29;10.03;;;7.40;;
13208;SDS011;6669;42.678;23.332;2024-01-10T14:06:58;9.63;;;7.77;;
13208;SDS011;6669;42.678;23.332;2024-01-10T14:09:26;7.93;;;6.83;;
13208;SDS011;6669;42.678;23.332;2024-01-10T14:11:54;9.50;;;6.73;;
13208;SDS011;6669;42.678;23.332;2024-01-10T14:14:22;9.03;;;6.63;;
13208;SDS011;6669;42.678;23.332;2024-01-10T14:16:52;9.80;;;7.10;;
13208;SDS011;6669;42.678;23.332;2024-01-10T14:19:20;9.80;;;6.83;;
13208;SDS011;6669;42.678;23.332;2024-01-10T14:21:50;11.63;;;8.10;;
13208;SDS011;6669;42.678;23.332;2024-01-10T14:24:18;12.17;;;6.70;;
13208;SDS011;6669;42.678;23.332;2024-01-10T14:26:46;10.57;;;7.80;;
13208;SDS011;6669;42.678;23.332;2024-01-10T14:29:15;10.97;;;7.13;;
13208;SDS011;6669;42.678;23.332;2024-01-10T14:31:43;8.90;;;6.93;;
13208;SDS011;6669;42.678;23.332;2024-01-10T14:34:31;11.87;;;7.70;;
13208;SDS011;6669;42.678;23.332;2024-01-10T14:37:01;8.93;;;7.33;;
13208;SDS011;6669;42.678;23.332;2024-01-10T14:39:30;10.00;;;7.53;;
13208;SDS011;6669;42.678;23.332;2024-01-10T14:42:01;11.30;;;7.73;;
13208;SDS011;6669;42.678;23.332;2024-01-10T14:44:29;11.73;;;8.10;;
13208;SDS011;6669;42.678;23.332;2024-01-10T14:46:57;11.80;;;7.40;;
13208;SDS011;6669;42.678;23.332;2024-01-10T14:49:36;12.13;;;7.87;;
13208;SDS011;6669;42.678;23.332;2024-01-10T14:52:06;12.20;;;7.43;;
13208;SDS011;6669;42.678;23.332;2024-01-10T14:54:34;10.27;;;7.97;;
13208;SDS011;6669;42.678;23.332;2024-01-10T14:57:02;16.47;;;8.23;;
13208;SDS011;6669;42.678;23.332;2024-01-10T14:59:30;12.63;;;7.40;;
13208;SDS011;6669;42.678;23.332;2024-01-10T15:02:11;11.07;;;7.53;;
13208;SDS011;6669;42.678;23.332;2024-01-10T15:04:39;9.47;;;7.00;;